createdAt,value
2022-12-09T00:00:09.244Z,7.53
2022-12-09T00:02:56.369Z,7.90
2022-12-09T00:05:43.276Z,7.73
2022-12-09T00:08:32.435Z,7.57
2022-12-09T00:11:19.793Z,7.33
2022-12-09T00:14:06.480Z,7.10
2022-12-09T00:16:53.487Z,8.30
2022-12-09T00:19:40.567Z,7.60
2022-12-09T00:22:28.320Z,6.73
2022-12-09T00:25:16.228Z,7.57
2022-12-09T00:28:02.915Z,7.67
2022-12-09T00:30:49.598Z,6.47
2022-12-09T00:33:37.164Z,8.37
2022-12-09T00:36:25.204Z,8.07
2022-12-09T00:39:13.276Z,7.40
2022-12-09T00:42:01.631Z,7.57
2022-12-09T00:44:48.291Z,7.40
2022-12-09T00:47:34.997Z,7.20
2022-12-09T00:50:21.714Z,8.17
2022-12-09T00:53:08.192Z,8.00
2022-12-09T00:55:54.673Z,8.43
2022-12-09T00:58:42.537Z,8.23
2022-12-09T01:01:30.203Z,8.07
2022-12-09T01:04:18.223Z,8.40
2022-12-09T01:07:04.971Z,8.57
2022-12-09T01:09:52.076Z,8.13
2022-12-09T01:12:39.092Z,8.13
2022-12-09T01:15:26.904Z,8.57
2022-12-09T01:18:15.452Z,8.43
2022-12-09T01:21:02.002Z,8.13
2022-12-09T01:23:48.799Z,7.87
2022-12-09T01:26:35.683Z,9.07
2022-12-09T01:29:22.716Z,8.47
2022-12-09T01:32:10.802Z,8.77
2022-12-09T01:34:57.529Z,9.50
2022-12-09T01:37:44.460Z,8.67
2022-12-09T01:40:31.533Z,8.97
2022-12-09T01:43:19.288Z,9.63
2022-12-09T01:46:06.492Z,10.27
2022-12-09T01:48:54.698Z,9.03
2022-12-09T01:51:43.971Z,9.67
2022-12-09T01:54:31.445Z,10.07
2022-12-09T01:57:18.745Z,9.73
2022-12-09T02:00:07.488Z,10.03
2022-12-09T02:02:57.380Z,9.80
2022-12-09T02:05:46.343Z,9.83
2022-12-09T02:08:32.793Z,9.43
2022-12-09T02:11:26.584Z,9.17
2022-12-09T02:14:19.189Z,8.70
2022-12-09T02:17:25.060Z,9.00
2022-12-09T02:20:19.915Z,8.57
2022-12-09T02:23:16.450Z,9.13
2022-12-09T02:26:15.543Z,9.33
2022-12-09T02:29:22.941Z,9.50
2022-12-09T02:32:36.372Z,9.67
2022-12-09T02:35:28.643Z,9.63
2022-12-09T02:38:20.365Z,9.23
2022-12-09T02:41:11.253Z,9.47
2022-12-09T02:44:02.477Z,8.67
2022-12-09T02:46:50.615Z,9.53
2022-12-09T02:49:38.964Z,9.40
2022-12-09T02:52:29.033Z,9.17
2022-12-09T02:55:17.956Z,8.70
2022-12-09T02:58:05.320Z,9.30
2022-12-09T03:00:53.038Z,9.70
2022-12-09T03:03:40.281Z,9.60
2022-12-09T03:06:33.650Z,9.73
2022-12-09T03:09:25.024Z,9.47
2022-12-09T03:12:15.813Z,9.03
2022-12-09T03:15:05.314Z,8.87
2022-12-09T03:17:54.855Z,9.13
2022-12-09T03:20:44.083Z,9.80
2022-12-09T03:23:32.756Z,8.47
2022-12-09T03:26:21.554Z,9.00
2022-12-09T03:29:14.971Z,9.47
2022-12-09T03:32:02.420Z,9.53
2022-12-09T03:34:52.259Z,9.50
2022-12-09T03:37:41.584Z,9.57
2022-12-09T03:40:31.842Z,9.27
2022-12-09T03:43:23.986Z,9.10
2022-12-09T03:46:11.595Z,8.47
2022-12-09T03:48:59.202Z,8.93
2022-12-09T03:51:51.020Z,8.83
2022-12-09T03:54:43.982Z,8.63
2022-12-09T03:57:30.905Z,8.60
2022-12-09T04:00:19.539Z,9.60
2022-12-09T04:03:07.228Z,9.20
2022-12-09T04:05:54.725Z,9.10
2022-12-09T04:08:41.766Z,9.13
2022-12-09T04:11:28.591Z,9.07
2022-12-09T04:14:15.951Z,9.10
2022-12-09T04:17:05.090Z,9.10
2022-12-09T04:19:52.356Z,9.53
2022-12-09T04:22:39.300Z,9.47
2022-12-09T04:25:26.219Z,9.63
2022-12-09T04:28:12.849Z,9.33
2022-12-09T04:31:00.214Z,9.27
2022-12-09T04:33:48.921Z,9.97
2022-12-09T04:36:35.727Z,10.13
2022-12-09T04:39:22.167Z,9.07
2022-12-09T04:42:08.872Z,9.33
2022-12-09T04:44:55.363Z,9.00
2022-12-09T04:47:42.128Z,9.23
2022-12-09T04:50:30.315Z,9.47
2022-12-09T04:53:16.992Z,9.93
2022-12-09T04:56:05.496Z,9.10
2022-12-09T04:58:52.642Z,9.10
2022-12-09T05:01:39.379Z,10.07
2022-12-09T05:04:26.455Z,12.35
2022-12-09T05:07:14.939Z,10.80
2022-12-09T05:10:02.301Z,10.87
2022-12-09T05:12:49.232Z,9.03
2022-12-09T05:15:38.599Z,9.07
2022-12-09T05:18:25.798Z,9.50
2022-12-09T05:21:15.092Z,9.30
2022-12-09T05:24:05.011Z,9.83
2022-12-09T05:26:52.483Z,10.53
2022-12-09T05:29:39.079Z,10.43
2022-12-09T05:32:29.079Z,12.17
2022-12-09T05:35:16.031Z,10.40
2022-12-09T05:38:03.358Z,11.17
2022-12-09T05:40:52.038Z,11.27
2022-12-09T05:43:39.091Z,11.37
2022-12-09T05:46:26.179Z,10.87
2022-12-09T05:49:13.732Z,10.93
2022-12-09T05:52:00.445Z,10.57
2022-12-09T05:54:47.003Z,10.87
2022-12-09T05:57:36.685Z,11.13
2022-12-09T06:00:23.865Z,10.90
2022-12-09T06:03:10.549Z,10.00
2022-12-09T06:05:57.893Z,11.10
2022-12-09T06:08:47.258Z,10.27
2022-12-09T06:11:34.169Z,10.90
2022-12-09T06:14:22.521Z,11.17
2022-12-09T06:17:09.103Z,9.97
2022-12-09T06:19:56.049Z,10.53
2022-12-09T06:22:42.507Z,10.57
2022-12-09T06:25:29.702Z,10.30
2022-12-09T06:28:16.815Z,10.07
2022-12-09T06:31:05.112Z,10.30
2022-12-09T06:33:55.519Z,10.53
2022-12-09T06:36:43.558Z,9.97
2022-12-09T06:39:30.859Z,10.17
2022-12-09T06:42:17.944Z,10.57
2022-12-09T06:45:05.734Z,10.93
2022-12-09T06:47:55.071Z,10.73
2022-12-09T06:50:42.809Z,10.73
2022-12-09T06:53:29.500Z,10.87
2022-12-09T06:56:17.094Z,11.97
2022-12-09T06:59:08.537Z,10.80
2022-12-09T07:01:55.524Z,10.33
2022-12-09T07:04:44.322Z,9.57
2022-12-09T07:07:31.065Z,10.03
2022-12-09T07:10:18.385Z,9.60
2022-12-09T07:13:05.409Z,9.80
2022-12-09T07:15:52.296Z,9.47
2022-12-09T07:18:39.211Z,10.17
2022-12-09T07:21:28.373Z,11.33
2022-12-09T07:24:18.512Z,11.13
2022-12-09T07:27:09.688Z,10.37
2022-12-09T07:29:59.097Z,11.07
2022-12-09T07:32:45.809Z,11.30
2022-12-09T07:35:33.027Z,9.60
2022-12-09T07:38:21.786Z,10.73
2022-12-09T07:41:10.064Z,9.50
2022-12-09T07:43:57.400Z,10.50
2022-12-09T07:46:44.761Z,9.13
2022-12-09T07:49:31.785Z,10.20
2022-12-09T07:52:18.662Z,9.83
2022-12-09T07:55:08.179Z,11.13
2022-12-09T07:57:55.154Z,11.90
2022-12-09T08:00:42.868Z,10.93
2022-12-09T08:03:29.741Z,10.20
2022-12-09T08:06:19.214Z,10.80
2022-12-09T08:09:09.455Z,12.27
2022-12-09T08:11:57.687Z,12.87
2022-12-09T08:14:45.185Z,13.77
2022-12-09T08:17:31.839Z,13.53
2022-12-09T08:20:22.396Z,15.27
2022-12-09T08:23:13.004Z,12.77
2022-12-09T08:26:01.080Z,12.07
2022-12-09T08:28:50.183Z,11.57
2022-12-09T08:31:41.029Z,10.33
2022-12-09T08:34:29.287Z,10.17
2022-12-09T08:37:16.377Z,10.03
2022-12-09T08:40:03.533Z,10.27
2022-12-09T08:42:50.691Z,8.83
2022-12-09T08:45:40.810Z,9.40
2022-12-09T08:48:28.096Z,9.23
2022-12-09T08:51:15.203Z,10.20
2022-12-09T08:54:02.641Z,10.13
2022-12-09T08:56:52.945Z,10.20
2022-12-09T08:59:45.023Z,11.60
2022-12-09T09:02:33.803Z,10.87
2022-12-09T09:05:22.990Z,10.77
2022-12-09T09:08:10.383Z,10.83
2022-12-09T09:10:57.594Z,10.40
2022-12-09T09:13:46.960Z,10.50
2022-12-09T09:16:34.565Z,9.43
2022-12-09T09:19:25.689Z,9.73
2022-12-09T09:22:13.170Z,9.70
2022-12-09T09:25:00.240Z,10.70
2022-12-09T09:27:47.165Z,10.10
2022-12-09T09:30:34.739Z,9.73
2022-12-09T09:33:21.759Z,9.00
2022-12-09T09:36:14.116Z,9.13
2022-12-09T09:39:01.502Z,9.70
2022-12-09T09:41:53.722Z,9.67
2022-12-09T09:44:44.007Z,8.97
2022-12-09T09:47:38.560Z,8.90
2022-12-09T09:50:33.705Z,9.07
2022-12-09T09:53:26.829Z,12.82
2022-12-09T09:56:23.333Z,10.10
2022-12-09T09:59:20.624Z,9.03
2022-12-09T10:02:18.273Z,8.93
2022-12-09T10:05:14.485Z,9.47
2022-12-09T10:08:19.736Z,9.27
2022-12-09T10:11:18.643Z,8.40
2022-12-09T10:14:15.453Z,8.60
2022-12-09T10:17:14.638Z,8.43
2022-12-09T10:20:07.724Z,8.97
2022-12-09T10:23:00.056Z,8.30
2022-12-09T10:25:51.877Z,9.20
2022-12-09T10:28:45.069Z,9.63
2022-12-09T10:31:32.918Z,9.13
2022-12-09T10:34:20.290Z,9.50
2022-12-09T10:37:07.742Z,9.20
2022-12-09T10:40:00.903Z,9.03
2022-12-09T10:43:06.458Z,9.20
2022-12-09T10:49:05.075Z,9.30
2022-12-09T10:51:53.998Z,9.53
2022-12-09T10:54:44.909Z,9.97
2022-12-09T10:57:32.046Z,8.73
2022-12-09T11:00:24.679Z,8.43
2022-12-09T11:03:29.911Z,9.10
2022-12-09T11:06:25.934Z,9.23
2022-12-09T11:09:24.254Z,9.30
2022-12-09T11:12:20.208Z,8.97
2022-12-09T11:15:25.553Z,9.07
2022-12-09T11:18:20.174Z,9.47
2022-12-09T11:21:28.839Z,8.70
2022-12-09T11:24:23.167Z,7.97
2022-12-09T11:27:30.289Z,8.77
2022-12-09T11:30:18.906Z,7.53
2022-12-09T11:33:20.446Z,8.43
2022-12-09T11:36:19.185Z,8.23
2022-12-09T11:39:26.363Z,8.30
2022-12-09T11:42:19.694Z,8.67
2022-12-09T11:45:18.601Z,8.57
2022-12-09T11:48:32.905Z,8.80
2022-12-09T11:51:23.877Z,8.70
2022-12-09T11:54:16.256Z,8.40
2022-12-09T11:57:04.253Z,9.13
2022-12-09T11:59:56.460Z,8.73
2022-12-09T12:02:47.674Z,8.93
2022-12-09T12:05:38.667Z,9.07
2022-12-09T12:08:31.400Z,8.30
2022-12-09T12:11:22.082Z,8.50
2022-12-09T12:14:17.865Z,8.57
2022-12-09T12:17:10.642Z,8.67
2022-12-09T12:19:57.731Z,9.07
2022-12-09T12:23:07.723Z,10.30
2022-12-09T12:26:04.050Z,8.93
2022-12-09T12:29:21.671Z,9.23
2022-12-09T12:32:22.639Z,9.47
2022-12-09T12:35:21.492Z,9.10
2022-12-09T12:38:20.833Z,9.77
2022-12-09T12:41:15.642Z,9.13
2022-12-09T12:44:32.018Z,7.93
2022-12-09T12:47:24.784Z,9.13
2022-12-09T12:50:34.329Z,8.50
2022-12-09T12:53:32.834Z,9.03
2022-12-09T12:56:26.473Z,9.43
2022-12-09T12:59:20.803Z,8.87
2022-12-09T13:02:20.962Z,8.63
2022-12-09T13:05:19.458Z,8.57
2022-12-09T13:08:10.649Z,7.30
2022-12-09T13:11:00.572Z,7.87
2022-12-09T13:13:55.047Z,7.70
2022-12-09T13:16:44.424Z,8.33
2022-12-09T13:19:37.825Z,9.27
2022-12-09T13:22:44.916Z,9.13
2022-12-09T13:25:39.169Z,8.77
2022-12-09T13:28:31.738Z,8.13
2022-12-09T13:31:23.350Z,8.97
2022-12-09T13:34:21.638Z,8.07
2022-12-09T13:37:35.732Z,8.70
2022-12-09T13:40:43.528Z,8.40
2022-12-09T13:43:33.703Z,7.90
2022-12-09T13:46:24.747Z,7.60
2022-12-09T13:49:18.956Z,7.40
2022-12-09T13:52:05.637Z,7.57
2022-12-09T13:54:52.550Z,7.73
2022-12-09T13:57:49.006Z,7.23
2022-12-09T14:00:36.548Z,7.67
2022-12-09T14:03:33.354Z,8.13
2022-12-09T14:06:25.754Z,7.50
2022-12-09T14:09:25.709Z,7.43
2022-12-09T14:12:14.678Z,7.70
2022-12-09T14:15:03.326Z,7.10
2022-12-09T14:18:01.859Z,6.57
2022-12-09T14:21:23.349Z,6.90
2022-12-09T14:24:35.366Z,6.43
2022-12-09T14:27:23.304Z,5.70
2022-12-09T14:30:52.184Z,7.83
2022-12-09T14:33:42.161Z,7.87
2022-12-09T14:36:32.983Z,7.47
2022-12-09T14:39:25.854Z,7.93
2022-12-09T14:42:23.872Z,7.97
2022-12-09T14:45:25.609Z,8.60
2022-12-09T14:48:17.648Z,8.30
2022-12-09T14:51:10.786Z,7.63
2022-12-09T14:54:00.119Z,8.80
2022-12-09T14:56:49.714Z,8.07
2022-12-09T14:59:37.020Z,8.07
2022-12-09T15:02:25.739Z,9.00
2022-12-09T15:05:18.292Z,10.50
2022-12-09T15:08:05.494Z,10.30
2022-12-09T15:10:52.357Z,10.17
2022-12-09T15:13:41.777Z,8.37
2022-12-09T15:16:29.042Z,9.33
2022-12-09T15:19:51.102Z,9.17
2022-12-09T15:22:32.243Z,9.83
2022-12-09T15:25:19.829Z,12.10
2022-12-09T15:28:15.339Z,11.10
2022-12-09T15:31:04.087Z,12.77
2022-12-09T15:33:53.794Z,12.73
2022-12-09T15:36:44.195Z,11.93
2022-12-09T15:39:39.524Z,12.03
2022-12-09T15:42:29.805Z,12.10
2022-12-09T15:45:20.688Z,12.53
2022-12-09T15:48:13.046Z,11.37
2022-12-09T15:51:03.685Z,11.93
2022-12-09T15:53:55.967Z,12.53
2022-12-09T15:56:47.479Z,12.23
2022-12-09T15:59:37.183Z,12.73
2022-12-09T16:02:27.473Z,11.53
2022-12-09T16:05:14.333Z,12.37
2022-12-09T16:08:02.530Z,12.73
2022-12-09T16:10:51.349Z,13.27
2022-12-09T16:13:58.169Z,12.43
2022-12-09T16:16:48.559Z,13.40
2022-12-09T16:19:36.480Z,12.60
2022-12-09T16:22:26.554Z,13.80
2022-12-09T16:25:21.178Z,12.50
2022-12-09T16:28:08.125Z,12.73
2022-12-09T16:30:58.957Z,13.57
2022-12-09T16:33:49.206Z,13.53
2022-12-09T16:36:36.149Z,13.27
2022-12-09T16:39:43.629Z,13.03
2022-12-09T16:42:36.492Z,12.43
2022-12-09T16:45:32.903Z,14.63
2022-12-09T16:48:23.582Z,14.23
2022-12-09T16:51:13.954Z,15.57
2022-12-09T16:54:01.253Z,14.27
2022-12-09T16:56:47.677Z,15.63
2022-12-09T16:59:37.791Z,16.97
2022-12-09T17:02:33.910Z,15.73
2022-12-09T17:05:21.802Z,15.90
2022-12-09T17:08:08.679Z,15.73
2022-12-09T17:10:55.531Z,15.43
2022-12-09T17:13:42.062Z,15.10
2022-12-09T17:16:28.687Z,15.07
2022-12-09T17:19:15.641Z,15.47
2022-12-09T17:22:03.706Z,15.67
2022-12-09T17:24:50.823Z,15.63
2022-12-09T17:27:37.453Z,15.00
2022-12-09T17:30:23.838Z,16.60
2022-12-09T17:33:10.239Z,15.13
2022-12-09T17:35:57.571Z,14.87
2022-12-09T17:38:45.750Z,16.33
2022-12-09T17:41:32.245Z,15.20
2022-12-09T17:44:21.212Z,14.70
2022-12-09T17:47:07.993Z,15.07
2022-12-09T17:49:54.842Z,15.73
2022-12-09T17:52:42.274Z,15.83
2022-12-09T17:55:30.446Z,15.13
2022-12-09T17:58:17.388Z,15.80
2022-12-09T18:01:03.935Z,15.27
2022-12-09T18:04:02.643Z,16.80
2022-12-09T18:06:51.406Z,15.73
2022-12-09T18:09:37.933Z,15.23
2022-12-09T18:12:26.230Z,15.27
2022-12-09T18:15:13.476Z,15.83
2022-12-09T18:18:00.046Z,15.10
2022-12-09T18:20:46.623Z,13.57
2022-12-09T18:23:33.136Z,12.97
2022-12-09T18:26:22.583Z,12.73
2022-12-09T18:29:14.623Z,20.07
2022-12-09T18:32:01.507Z,20.63
2022-12-09T18:34:49.238Z,15.67
2022-12-09T18:37:35.860Z,12.87
2022-12-09T18:40:22.311Z,11.63
2022-12-09T18:43:09.053Z,11.37
2022-12-09T18:45:56.768Z,11.77
2022-12-09T18:48:43.801Z,11.23
2022-12-09T18:51:31.305Z,10.40
2022-12-09T18:54:20.153Z,11.00
2022-12-09T18:57:07.038Z,14.20
2022-12-09T18:59:53.782Z,14.27
2022-12-09T19:02:41.632Z,13.53
2022-12-09T19:05:28.359Z,12.13
2022-12-09T19:08:15.915Z,13.63
2022-12-09T19:11:02.246Z,12.40
2022-12-09T19:13:48.719Z,13.70
2022-12-09T19:16:35.818Z,15.50
2022-12-09T19:19:25.947Z,15.77
2022-12-09T19:22:12.358Z,13.47
2022-12-09T19:24:58.767Z,12.40
2022-12-09T19:27:46.985Z,11.30
2022-12-09T19:30:33.733Z,9.27
2022-12-09T19:33:20.108Z,9.23
2022-12-09T19:36:08.866Z,9.13
2022-12-09T19:38:55.690Z,9.00
2022-12-09T19:41:43.928Z,9.77
2022-12-09T19:44:59.739Z,8.47
2022-12-09T19:47:37.426Z,9.27
2022-12-09T19:50:23.872Z,10.90
2022-12-09T19:53:12.174Z,8.23
2022-12-09T19:56:01.709Z,8.40
2022-12-09T19:58:48.690Z,8.33
2022-12-09T20:01:37.086Z,7.10
2022-12-09T20:07:32.279Z,9.13
2022-12-09T20:10:20.049Z,8.40
2022-12-09T20:13:06.621Z,8.40
2022-12-09T20:15:53.399Z,8.70
2022-12-09T20:18:40.530Z,9.30
2022-12-09T20:21:27.630Z,9.57
2022-12-09T20:24:14.341Z,8.40
2022-12-09T20:27:02.297Z,9.37
2022-12-09T20:29:49.249Z,8.23
2022-12-09T20:32:35.769Z,8.87
2022-12-09T20:35:22.487Z,7.97
2022-12-09T20:38:09.210Z,9.07
2022-12-09T20:40:56.113Z,8.53
2022-12-09T20:43:46.265Z,8.00
2022-12-09T20:46:33.730Z,6.87
2022-12-09T20:49:26.169Z,6.87
2022-12-09T20:52:13.104Z,6.37
2022-12-09T20:54:59.735Z,7.10
2022-12-09T20:57:46.276Z,6.93
2022-12-09T21:00:33.999Z,6.73
2022-12-09T21:03:21.092Z,7.43
2022-12-09T21:06:08.546Z,7.40
2022-12-09T21:08:54.862Z,6.30
2022-12-09T21:11:41.545Z,7.53
2022-12-09T21:14:32.982Z,6.93
2022-12-09T21:17:21.213Z,6.20
2022-12-09T21:20:09.269Z,7.00
2022-12-09T21:23:31.933Z,6.87
2022-12-09T21:26:05.576Z,6.77
2022-12-09T21:28:52.948Z,6.57
2022-12-09T21:31:41.822Z,6.30
2022-12-09T21:34:30.227Z,6.83
2022-12-09T21:37:16.859Z,6.07
2022-12-09T21:40:03.466Z,6.17
2022-12-09T21:42:50.194Z,6.27
2022-12-09T21:45:36.617Z,6.47
2022-12-09T21:48:23.479Z,6.13
2022-12-09T21:51:13.133Z,5.77
2022-12-09T21:53:59.739Z,6.50
2022-12-09T21:56:46.179Z,5.30
2022-12-09T21:59:32.795Z,6.63
2022-12-09T22:02:19.519Z,7.03
2022-12-09T22:05:06.772Z,6.37
2022-12-09T22:07:54.545Z,6.53
2022-12-09T22:10:41.479Z,6.50
2022-12-09T22:13:29.293Z,7.87
2022-12-09T22:16:18.794Z,7.57
2022-12-09T22:19:08.180Z,6.87
2022-12-09T22:21:54.941Z,7.80
2022-12-09T22:24:42.709Z,7.73
2022-12-09T22:27:29.530Z,7.90
2022-12-09T22:30:16.234Z,7.40
2022-12-09T22:33:02.617Z,7.47
2022-12-09T22:35:49.115Z,8.23
2022-12-09T22:38:36.893Z,8.27
2022-12-09T22:41:27.683Z,8.20
2022-12-09T22:44:16.301Z,7.40
2022-12-09T22:47:02.764Z,8.87
2022-12-09T22:49:49.407Z,8.33
2022-12-09T22:52:36.068Z,8.10
2022-12-09T22:55:23.027Z,8.10
2022-12-09T22:58:11.022Z,9.23
2022-12-09T23:00:58.086Z,9.03
2022-12-09T23:03:45.321Z,9.20
2022-12-09T23:06:31.874Z,9.07
2022-12-09T23:09:21.678Z,8.23
2022-12-09T23:12:09.009Z,8.83
2022-12-09T23:14:57.032Z,8.33
2022-12-09T23:17:43.731Z,9.07
2022-12-09T23:20:30.462Z,8.83
2022-12-09T23:23:17.059Z,8.57
2022-12-09T23:26:05.648Z,8.63
2022-12-09T23:28:53.819Z,9.10
2022-12-09T23:31:41.902Z,9.23
2022-12-09T23:34:28.532Z,9.43
2022-12-09T23:37:15.319Z,9.63
2022-12-09T23:40:02.127Z,9.93
2022-12-09T23:42:48.519Z,10.00
2022-12-09T23:45:34.958Z,10.70
2022-12-09T23:48:22.923Z,8.90
2022-12-09T23:51:13.714Z,9.77
2022-12-09T23:54:02.432Z,9.13
2022-12-09T23:56:50.713Z,10.90
2022-12-09T23:59:37.503Z,10.80
